Time;durP1;ratioP1;P1;durP2;ratioP2;P2;SDS_P1;SDS_P2;PMS_P1;PMS_P2;Temp;Humidity;BMP_temperature;BMP_pressure;BME280_temperature;BME280_humidity;BME280_pressure;Samples;Min_cycle;Max_cycle;Signal;HPM_P1;HPM_P2
2023/10/15 00:00:50;;;;;;;;;;;;;;;;;;5111235;28;20002;-44
2023/10/15 00:03:15;;;;;;;;;;;;;;;;;;5111106;28;20014;-45
2023/10/15 00:05:41;;;;;;;;;;;;;;;;;;5111445;28;20351;-45
2023/10/15 00:08:06;;;;;;;;;;;;;;;;;;5116589;28;19953;-44
2023/10/15 00:10:32;;;;;;;;;;;;;;;;;;5131936;28;20364;-44
2023/10/15 00:12:57;;;;;;;;;;;;;;;;;;5131532;28;19966;-45
2023/10/15 00:15:23;;;;;;;;;;;;;;;;;;5131809;28;19970;-43
2023/10/15 00:17:50;;;;;;;;;;;;;;;;;;5131844;28;19923;-41
2023/10/15 00:20:17;;;;;;;;;;;;;;;;;;5131913;28;20438;-43
2023/10/15 00:22:42;;;;;;;;;;;;;;;;;;5131626;28;20009;-43
2023/10/15 00:25:10;;;;;;;;;;;;;;;;;;5131757;28;19923;-43
2023/10/15 00:27:36;;;;;;;;;;;;;;;;;;5131360;28;20007;-45
2023/10/15 00:30:02;;;;;;;;;;;;;;;;;;5131557;28;19976;-43
2023/10/15 00:32:29;;;;;;;;;;;;;;;;;;5131838;28;20002;-46
2023/10/15 00:34:54;;;;;;;;;;;;;;;;;;5133427;27;19934;-43
2023/10/15 00:37:22;;;;;;;;;;;;;;;;;;5131737;28;20006;-41
2023/10/15 00:39:48;;;;;;;;;;;;;;;;;;5111604;27;19963;-44
2023/10/15 00:42:15;;;;;;;;;;;;;;;;;;5125295;27;20103;-43
2023/10/15 00:44:41;;;;;;;;;;;;;;;;;;5137216;27;19996;-45
2023/10/15 00:47:15;;;;;;;;;;;;;;;;;;5131557;28;20010;-43
2023/10/15 00:49:41;;;;;;;;;;;;;;;;;;5112459;27;20415;-43
2023/10/15 00:52:09;;;;;;;;;;;;;;;;;;5110557;28;20360;-42
2023/10/15 00:54:35;;;;;;;;;;;;;;;;;;5112274;28;20401;-45
2023/10/15 00:57:25;;;;;;;;;;;;;;;;;;5120588;27;20510;-42
2023/10/15 00:59:48;;;;;;;;;;;;;;;;;;5118325;28;19962;-46
2023/10/15 01:02:21;;;;;;;;;;;;;;;;;;5134879;28;19924;-43
2023/10/15 01:04:47;;;;;;;;;;;;;;;;;;5135246;28;19924;-44
2023/10/15 01:07:21;;;;;;;;;;;;;;;;;;5135549;28;19962;-46
2023/10/15 01:09:46;;;;;;;;;;;;;;;;;;5134349;27;20299;-47
2023/10/15 01:12:19;;;;;;;;;;;;;;;;;;5135397;28;19974;-42
2023/10/15 01:14:45;;;;;;;;;;;;;;;;;;5134691;28;19927;-43
2023/10/15 01:17:11;;;;;;;;;;;;;;;;;;5135134;28;19973;-41
2023/10/15 01:19:36;;;;;;;;;;;;;;;;;;5134846;28;19923;-43
2023/10/15 01:22:02;;;;;;;;;;;;;;;;;;5134466;28;19928;-42
2023/10/15 01:24:28;;;;;;;;;;;;;;;;;;5134351;28;19923;-46
2023/10/15 01:27:09;;;;;;;;;;;;;;;;;;5135197;28;20319;-43
2023/10/15 01:29:35;;;;;;;;;;;;;;;;;;5134746;28;19923;-45
2023/10/15 01:32:02;;;;;;;;;;;;;;;;;;5135095;28;19976;-45
2023/10/15 01:34:28;;;;;;;;;;;;;;;;;;5134730;27;19923;-47
2023/10/15 01:36:56;;;;;;;;;;;;;;;;;;5135391;27;19923;-42
2023/10/15 01:39:22;;;;;;;;;;;;;;;;;;5118484;27;19959;-43
2023/10/15 01:41:50;;;;;;;;;;;;;;;;;;5114013;28;19924;-43
2023/10/15 01:44:19;;;;;;;;;;;;;;;;;;5127527;27;19938;-45
2023/10/15 01:46:48;;;;;;;;;;;;;;;;;;5138539;27;19923;-43
2023/10/15 01:49:21;;;;;;;;;;;;;;;;;;5119900;27;19927;-43
2023/10/15 01:51:46;;;;;;;;;;;;;;;;;;5114331;28;19946;-45
2023/10/15 01:54:12;;;;;;;;;;;;;;;;;;5114006;28;19970;-47
2023/10/15 01:56:37;;;;;;;;;;;;;;;;;;5127063;27;19949;-42
2023/10/15 01:59:08;;;;;;;;;;;;;;;;;;5134136;28;19930;-44
2023/10/15 02:01:37;;;;;;;;;;;;;;;;;;5134440;28;19923;-43
2023/10/15 02:04:02;;;;;;;;;;;;;;;;;;5134044;28;19923;-42
2023/10/15 02:06:31;;;;;;;;;;;;;;;;;;5133635;27;19927;-43
2023/10/15 02:08:56;;;;;;;;;;;;;;;;;;5133765;28;20355;-45
2023/10/15 02:11:21;;;;;;;;;;;;;;;;;;5134157;28;20021;-41
2023/10/15 02:13:47;;;;;;;;;;;;;;;;;;5133467;28;20427;-44
2023/10/15 02:16:17;;;;;;;;;;;;;;;;;;5132932;28;19927;-43
2023/10/15 02:18:44;;;;;;;;;;;;;;;;;;5133438;28;19935;-44
2023/10/15 02:21:10;;;;;;;;;;;;;;;;;;5133545;28;19985;-46
2023/10/15 02:23:35;;;;;;;;;;;;;;;;;;5132814;28;20390;-44
2023/10/15 02:26:01;;;;;;;;;;;;;;;;;;5134140;28;20060;-44
2023/10/15 02:28:27;;;;;;;;;;;;;;;;;;5133043;28;19924;-44
2023/10/15 02:30:58;;;;;;;;;;;;;;;;;;5133353;28;19990;-42
2023/10/15 02:33:25;;;;;;;;;;;;;;;;;;5133574;28;20398;-44
2023/10/15 02:35:54;;;;;;;;;;;;;;;;;;5133187;28;20371;-43
2023/10/15 02:38:20;;;;;;;;;;;;;;;;;;5140902;27;19974;-43
2023/10/15 02:41:17;;;;;;;;;;;;;;;;;;5133005;28;19935;-45
2023/10/15 02:43:31;;;;;;;;;;;;;;;;;;5116650;28;19954;-44
2023/10/15 02:46:00;;;;;;;;;;;;;;;;;;5135663;27;19931;-45
2023/10/15 02:48:26;;;;;;;;;;;;;;;;;;5143231;27;19928;-41
2023/10/15 02:50:59;;;;;;;;;;;;;;;;;;5132848;28;20533;-45
2023/10/15 02:53:26;;;;;;;;;;;;;;;;;;5133018;28;20003;-42
2023/10/15 02:55:51;;;;;;;;;;;;;;;;;;5143981;27;19967;-42
2023/10/15 02:58:17;;;;;;;;;;;;;;;;;;5139659;27;19923;-42
2023/10/15 03:00:42;;;;;;;;;;;;;;;;;;5112193;28;20396;-43
2023/10/15 03:03:09;;;;;;;;;;;;;;;;;;5112333;28;20022;-44
2023/10/15 03:05:38;;;;;;;;;;;;;;;;;;5112230;28;20421;-45
2023/10/15 03:08:03;;;;;;;;;;;;;;;;;;5111705;28;20018;-45
2023/10/15 03:10:30;;;;;;;;;;;;;;;;;;5112377;28;20380;-44
2023/10/15 03:12:59;;;;;;;;;;;;;;;;;;5112327;28;20379;-42
2023/10/15 03:15:25;;;;;;;;;;;;;;;;;;5112027;28;19928;-42
2023/10/15 03:17:50;;;;;;;;;;;;;;;;;;5110811;28;19932;-42
2023/10/15 03:22:58;;;;;;;;;;;;;;;;;;5191145;27;20430;-43
2023/10/15 03:25:24;;;;;;;;;;;;;;;;;;5190457;27;19934;-42
2023/10/15 03:27:54;;;;;;;;;;;;;;;;;;5190588;27;19978;-42
2023/10/15 03:30:23;;;;;;;;;;;;;;;;;;5190888;27;19965;-44
2023/10/15 03:32:48;;;;;;;;;;;;;;;;;;5190712;27;20308;-48
2023/10/15 03:35:18;;;;;;;;;;;;;;;;;;5190250;27;19971;-42
2023/10/15 03:37:47;;;;;;;;;;;;;;;;;;5190074;27;19933;-44
2023/10/15 03:40:29;;;;;;;;;;;;;;;;;;5189677;27;19965;-42
2023/10/15 03:43:00;;;;;;;;;;;;;;;;;;5175364;27;20374;-42
2023/10/15 03:45:26;;;;;;;;;;;;;;;;;;5168711;27;19975;-44
2023/10/15 03:47:54;;;;;;;;;;;;;;;;;;5168484;27;19983;-44
2023/10/15 03:50:19;;;;;;;;;;;;;;;;;;5168836;27;19969;-43
2023/10/15 03:52:45;;;;;;;;;;;;;;;;;;5169579;27;19927;-43
2023/10/15 03:55:10;;;;;;;;;;;;;;;;;;5173998;27;19965;-44
2023/10/15 03:57:36;;;;;;;;;;;;;;;;;;5188353;27;19974;-42
2023/10/15 04:00:06;;;;;;;;;;;;;;;;;;5148552;27;20012;-45
2023/10/15 04:02:45;;;;;;;;;;;;;;;;;;5148229;27;20288;-44
2023/10/15 04:05:14;;;;;;;;;;;;;;;;;;5147880;27;20359;-44
2023/10/15 04:07:48;;;;;;;;;;;;;;;;;;5147884;27;19923;-42
2023/10/15 04:10:13;;;;;;;;;;;;;;;;;;5148022;27;19958;-45
2023/10/15 04:12:43;;;;;;;;;;;;;;;;;;5147726;27;19962;-44
2023/10/15 04:15:13;;;;;;;;;;;;;;;;;;5147328;27;20501;-47
2023/10/15 04:17:39;;;;;;;;;;;;;;;;;;5147200;27;19950;-44
2023/10/15 04:20:04;;;;;;;;;;;;;;;;;;5147525;27;20427;-44
2023/10/15 04:22:30;;;;;;;;;;;;;;;;;;5147844;27;19934;-42
2023/10/15 04:24:55;;;;;;;;;;;;;;;;;;5147452;27;20010;-44
2023/10/15 04:27:24;;;;;;;;;;;;;;;;;;5147815;27;20014;-44
2023/10/15 04:29:52;;;;;;;;;;;;;;;;;;5147853;27;19963;-42
2023/10/15 04:32:24;;;;;;;;;;;;;;;;;;5145160;27;19963;-46
2023/10/15 04:34:49;;;;;;;;;;;;;;;;;;5134297;28;19927;-42
2023/10/15 04:37:16;;;;;;;;;;;;;;;;;;5133877;28;19991;-43
2023/10/15 04:39:58;;;;;;;;;;;;;;;;;;5133257;27;19927;-42
2023/10/15 04:42:48;;;;;;;;;;;;;;;;;;5152738;27;19927;-42
2023/10/15 04:45:21;;;;;;;;;;;;;;;;;;5153638;27;19962;-42
2023/10/15 04:47:51;;;;;;;;;;;;;;;;;;5154329;27;20460;-45
2023/10/15 04:50:16;;;;;;;;;;;;;;;;;;5153912;27;19980;-43
2023/10/15 04:52:42;;;;;;;;;;;;;;;;;;5154278;27;19927;-42
2023/10/15 04:55:08;;;;;;;;;;;;;;;;;;5154379;27;19962;-43
2023/10/15 04:57:33;;;;;;;;;;;;;;;;;;5153715;27;20429;-46
2023/10/15 04:59:58;;;;;;;;;;;;;;;;;;5154546;27;20350;-43
2023/10/15 05:02:24;;;;;;;;;;;;;;;;;;5154466;27;19987;-44
2023/10/15 05:04:49;;;;;;;;;;;;;;;;;;5154158;27;19923;-46
2023/10/15 05:07:15;;;;;;;;;;;;;;;;;;5154501;27;20378;-46
2023/10/15 05:09:40;;;;;;;;;;;;;;;;;;5154198;27;19923;-44
2023/10/15 05:12:07;;;;;;;;;;;;;;;;;;5154235;27;20388;-43
2023/10/15 05:14:32;;;;;;;;;;;;;;;;;;5154111;27;20266;-44
2023/10/15 05:16:59;;;;;;;;;;;;;;;;;;5154625;27;20014;-45
2023/10/15 05:19:25;;;;;;;;;;;;;;;;;;5154402;27;19954;-43
2023/10/15 05:21:51;;;;;;;;;;;;;;;;;;5154478;27;20278;-43
2023/10/15 05:24:18;;;;;;;;;;;;;;;;;;5154113;27;20011;-42
2023/10/15 05:26:46;;;;;;;;;;;;;;;;;;5154283;27;20287;-42
2023/10/15 05:29:13;;;;;;;;;;;;;;;;;;5153825;27;20034;-44
2023/10/15 05:31:39;;;;;;;;;;;;;;;;;;5154286;27;19934;-42
2023/10/15 05:34:04;;;;;;;;;;;;;;;;;;5154412;27;19931;-43
2023/10/15 05:36:30;;;;;;;;;;;;;;;;;;5154418;27;19971;-43
2023/10/15 05:38:55;;;;;;;;;;;;;;;;;;5153478;27;19966;-43
2023/10/15 05:41:23;;;;;;;;;;;;;;;;;;5154139;27;20414;-42
2023/10/15 05:43:49;;;;;;;;;;;;;;;;;;5150898;27;19973;-44
2023/10/15 05:46:14;;;;;;;;;;;;;;;;;;5152132;27;20014;-42
2023/10/15 05:48:40;;;;;;;;;;;;;;;;;;5153591;27;20060;-43
2023/10/15 05:51:06;;;;;;;;;;;;;;;;;;5153179;27;20339;-42
2023/10/15 05:53:32;;;;;;;;;;;;;;;;;;5153134;27;19923;-46
2023/10/15 05:55:58;;;;;;;;;;;;;;;;;;5168578;27;20364;-42
2023/10/15 05:58:24;;;;;;;;;;;;;;;;;;5165541;27;20018;-45
2023/10/15 06:00:50;;;;;;;;;;;;;;;;;;5153256;27;20439;-42
2023/10/15 06:03:16;;;;;;;;;;;;;;;;;;5153016;27;19934;-44
2023/10/15 06:05:41;;;;;;;;;;;;;;;;;;5152997;27;20316;-44
2023/10/15 06:08:08;;;;;;;;;;;;;;;;;;5152771;27;19930;-49
2023/10/15 06:10:33;;;;;;;;;;;;;;;;;;5152968;27;20023;-43
2023/10/15 06:12:59;;;;;;;;;;;;;;;;;;5152853;27;20021;-42
2023/10/15 06:15:26;;;;;;;;;;;;;;;;;;5152950;27;19931;-42
2023/10/15 06:17:51;;;;;;;;;;;;;;;;;;5152657;27;19931;-45
2023/10/15 06:20:17;;;;;;;;;;;;;;;;;;5153133;27;20010;-42
2023/10/15 06:22:42;;;;;;;;;;;;;;;;;;5152493;27;20477;-42
2023/10/15 06:25:09;;;;;;;;;;;;;;;;;;5152419;27;20013;-42
2023/10/15 06:27:35;;;;;;;;;;;;;;;;;;5152334;27;19927;-41
2023/10/15 06:30:01;;;;;;;;;;;;;;;;;;5152458;27;19946;-47
2023/10/15 06:32:26;;;;;;;;;;;;;;;;;;5152482;27;20354;-44
2023/10/15 06:34:52;;;;;;;;;;;;;;;;;;5152734;27;19975;-44
2023/10/15 06:37:17;;;;;;;;;;;;;;;;;;5152886;27;20052;-43
2023/10/15 06:39:42;;;;;;;;;;;;;;;;;;5152028;27;19966;-43
2023/10/15 06:42:08;;;;;;;;;;;;;;;;;;5152246;27;20049;-43
2023/10/15 06:44:34;;;;;;;;;;;;;;;;;;5150902;27;19957;-44
2023/10/15 06:46:59;;;;;;;;;;;;;;;;;;5151453;27;20347;-43
2023/10/15 06:49:25;;;;;;;;;;;;;;;;;;5152118;27;20333;-42
2023/10/15 06:51:50;;;;;;;;;;;;;;;;;;5152364;27;20577;-42
2023/10/15 06:54:16;;;;;;;;;;;;;;;;;;5150916;27;19962;-43
2023/10/15 06:56:41;;;;;;;;;;;;;;;;;;5152335;27;19981;-46
2023/10/15 06:59:07;;;;;;;;;;;;;;;;;;5151602;27;19966;-42
2023/10/15 07:01:32;;;;;;;;;;;;;;;;;;5152185;27;20013;-42
2023/10/15 07:03:58;;;;;;;;;;;;;;;;;;5151431;27;19977;-46
2023/10/15 07:06:23;;;;;;;;;;;;;;;;;;5151915;27;20001;-43
2023/10/15 07:08:50;;;;;;;;;;;;;;;;;;5151921;27;19966;-44
2023/10/15 07:11:15;;;;;;;;;;;;;;;;;;5152652;27;19927;-43
2023/10/15 07:13:41;;;;;;;;;;;;;;;;;;5152549;27;19954;-43
2023/10/15 07:16:06;;;;;;;;;;;;;;;;;;5152381;27;19934;-44
2023/10/15 07:18:33;;;;;;;;;;;;;;;;;;5152378;27;19969;-45
2023/10/15 07:20:58;;;;;;;;;;;;;;;;;;5152518;27;19930;-43
2023/10/15 07:23:24;;;;;;;;;;;;;;;;;;5152229;27;20005;-45
2023/10/15 07:25:49;;;;;;;;;;;;;;;;;;5152453;27;19929;-42
2023/10/15 07:28:15;;;;;;;;;;;;;;;;;;5152124;27;19927;-45
2023/10/15 07:30:40;;;;;;;;;;;;;;;;;;5152426;27;19923;-43
2023/10/15 07:33:06;;;;;;;;;;;;;;;;;;5152465;27;20017;-42
2023/10/15 07:35:31;;;;;;;;;;;;;;;;;;5152346;27;20315;-43
2023/10/15 07:37:57;;;;;;;;;;;;;;;;;;5152036;27;19976;-43
2023/10/15 07:40:25;;;;;;;;;;;;;;;;;;5152267;27;19923;-44
2023/10/15 07:42:51;;;;;;;;;;;;;;;;;;5151325;27;19946;-42
2023/10/15 07:45:16;;;;;;;;;;;;;;;;;;5150678;27;20392;-41
2023/10/15 07:47:42;;;;;;;;;;;;;;;;;;5150877;27;20018;-45
2023/10/15 07:50:07;;;;;;;;;;;;;;;;;;5151088;27;19967;-43
2023/10/15 07:52:33;;;;;;;;;;;;;;;;;;5148162;27;20014;-45
2023/10/15 07:54:59;;;;;;;;;;;;;;;;;;5145387;27;20062;-44
2023/10/15 07:57:25;;;;;;;;;;;;;;;;;;5150938;27;20031;-43
2023/10/15 07:59:54;;;;;;;;;;;;;;;;;;5131225;27;19924;-43
2023/10/15 08:02:21;;;;;;;;;;;;;;;;;;5130908;28;19977;-41
2023/10/15 08:04:46;;;;;;;;;;;;;;;;;;5130170;28;19927;-43
2023/10/15 08:07:12;;;;;;;;;;;;;;;;;;5130481;27;20333;-44
2023/10/15 08:09:38;;;;;;;;;;;;;;;;;;5133848;27;20367;-42
2023/10/15 08:12:03;;;;;;;;;;;;;;;;;;5133992;28;20277;-43
2023/10/15 08:14:29;;;;;;;;;;;;;;;;;;5134051;28;20073;-41
2023/10/15 08:16:54;;;;;;;;;;;;;;;;;;5134426;28;20082;-43
2023/10/15 08:19:20;;;;;;;;;;;;;;;;;;5134237;27;20447;-43
2023/10/15 08:21:46;;;;;;;;;;;;;;;;;;5134295;28;19985;-41
2023/10/15 08:24:14;;;;;;;;;;;;;;;;;;5133487;28;20411;-42
2023/10/15 08:26:40;;;;;;;;;;;;;;;;;;5134193;28;20378;-44
2023/10/15 08:29:05;;;;;;;;;;;;;;;;;;5133841;27;20006;-41
2023/10/15 08:31:31;;;;;;;;;;;;;;;;;;5134272;28;20361;-43
2023/10/15 08:33:57;;;;;;;;;;;;;;;;;;5133831;28;20018;-42
2023/10/15 08:36:22;;;;;;;;;;;;;;;;;;5134149;28;20248;-41
2023/10/15 08:38:49;;;;;;;;;;;;;;;;;;5133816;27;19978;-44
2023/10/15 08:41:15;;;;;;;;;;;;;;;;;;5134050;27;19963;-42
2023/10/15 08:43:40;;;;;;;;;;;;;;;;;;5133118;28;20003;-42
2023/10/15 08:46:09;;;;;;;;;;;;;;;;;;5134835;27;19927;-42
2023/10/15 08:48:35;;;;;;;;;;;;;;;;;;5143447;27;20300;-41
2023/10/15 08:51:01;;;;;;;;;;;;;;;;;;5134052;28;19945;-42
2023/10/15 08:53:28;;;;;;;;;;;;;;;;;;5148027;27;19927;-46
2023/10/15 08:55:57;;;;;;;;;;;;;;;;;;5154333;27;19930;-42
2023/10/15 08:58:23;;;;;;;;;;;;;;;;;;5152311;27;19927;-41
2023/10/15 09:00:50;;;;;;;;;;;;;;;;;;5154236;27;19927;-45
2023/10/15 09:03:17;;;;;;;;;;;;;;;;;;5154252;27;20014;-43
2023/10/15 09:05:42;;;;;;;;;;;;;;;;;;5154153;27;20300;-43
2023/10/15 09:08:08;;;;;;;;;;;;;;;;;;5147884;27;19924;-41
2023/10/15 09:10:34;;;;;;;;;;;;;;;;;;5133307;28;19933;-43
2023/10/15 09:12:59;;;;;;;;;;;;;;;;;;5133248;28;20014;-45
2023/10/15 09:15:29;;;;;;;;;;;;;;;;;;5133578;28;20014;-42
2023/10/15 09:17:54;;;;;;;;;;;;;;;;;;5133830;27;19928;-42
2023/10/15 09:20:26;;;;;;;;;;;;;;;;;;5133878;27;20051;-43
2023/10/15 09:22:51;;;;;;;;;;;;;;;;;;5133679;28;19966;-42
2023/10/15 09:25:17;;;;;;;;;;;;;;;;;;5133782;28;19993;-42
2023/10/15 09:27:42;;;;;;;;;;;;;;;;;;5132924;27;20337;-42
2023/10/15 09:30:18;;;;;;;;;;;;;;;;;;5133630;28;20325;-42
2023/10/15 09:32:43;;;;;;;;;;;;;;;;;;5133803;28;20380;-43
2023/10/15 09:35:09;;;;;;;;;;;;;;;;;;5133220;28;20014;-43
2023/10/15 09:37:35;;;;;;;;;;;;;;;;;;5133082;27;20404;-43
2023/10/15 09:40:00;;;;;;;;;;;;;;;;;;5133337;28;20027;-41
2023/10/15 09:42:33;;;;;;;;;;;;;;;;;;5133217;28;19962;-43
2023/10/15 09:45:01;;;;;;;;;;;;;;;;;;5132666;28;19923;-41
2023/10/15 09:47:27;;;;;;;;;;;;;;;;;;5133361;28;19927;-41
2023/10/15 09:49:52;;;;;;;;;;;;;;;;;;5152978;27;19967;-43
2023/10/15 09:52:18;;;;;;;;;;;;;;;;;;5148777;27;19966;-41
2023/10/15 09:54:44;;;;;;;;;;;;;;;;;;5153977;27;19923;-44
2023/10/15 09:57:10;;;;;;;;;;;;;;;;;;5153490;27;19970;-42
2023/10/15 09:59:35;;;;;;;;;;;;;;;;;;5152185;27;19989;-41
2023/10/15 10:02:05;;;;;;;;;;;;;;;;;;5152618;27;20295;-43
2023/10/15 10:04:40;;;;;;;;;;;;;;;;;;5151992;27;20371;-42
2023/10/15 10:07:05;;;;;;;;;;;;;;;;;;5153096;27;19991;-43
2023/10/15 10:09:36;;;;;;;;;;;;;;;;;;5139156;27;20367;-43
2023/10/15 10:12:02;;;;;;;;;;;;;;;;;;5153107;27;19966;-44
2023/10/15 10:14:29;;;;;;;;;;;;;;;;;;5152863;27;20018;-43
2023/10/15 10:16:54;;;;;;;;;;;;;;;;;;5153499;27;19969;-43
2023/10/15 10:19:20;;;;;;;;;;;;;;;;;;5137453;27;20011;-41
2023/10/15 10:21:46;;;;;;;;;;;;;;;;;;5139722;27;20025;-42
2023/10/15 10:24:12;;;;;;;;;;;;;;;;;;5153165;27;19958;-44
2023/10/15 10:26:38;;;;;;;;;;;;;;;;;;5153563;27;20355;-44
2023/10/15 10:29:03;;;;;;;;;;;;;;;;;;5139454;27;19973;-43
2023/10/15 10:31:30;;;;;;;;;;;;;;;;;;5131653;27;19923;-41
2023/10/15 10:33:56;;;;;;;;;;;;;;;;;;5131847;28;19935;-42
2023/10/15 10:36:21;;;;;;;;;;;;;;;;;;5131979;28;19923;-45
2023/10/15 10:38:47;;;;;;;;;;;;;;;;;;5131151;27;20443;-41
2023/10/15 10:41:13;;;;;;;;;;;;;;;;;;5131932;28;19931;-43
2023/10/15 10:43:50;;;;;;;;;;;;;;;;;;5130831;28;20022;-44
2023/10/15 10:46:27;;;;;;;;;;;;;;;;;;5131806;28;19924;-43
2023/10/15 10:48:52;;;;;;;;;;;;;;;;;;5134003;27;19989;-43
2023/10/15 10:51:19;;;;;;;;;;;;;;;;;;5151418;27;20118;-43
2023/10/15 10:53:44;;;;;;;;;;;;;;;;;;5150605;27;20351;-45
2023/10/15 10:56:10;;;;;;;;;;;;;;;;;;5152242;27;20391;-41
2023/10/15 10:58:35;;;;;;;;;;;;;;;;;;5151545;27;20275;-43
2023/10/15 11:01:01;;;;;;;;;;;;;;;;;;5151294;27;19927;-41
2023/10/15 11:03:28;;;;;;;;;;;;;;;;;;5151233;27;20010;-42
2023/10/15 11:05:54;;;;;;;;;;;;;;;;;;5151905;27;19923;-44
2023/10/15 11:08:20;;;;;;;;;;;;;;;;;;5145017;27;19923;-43
2023/10/15 11:10:45;;;;;;;;;;;;;;;;;;5145275;27;19927;-43
2023/10/15 11:13:11;;;;;;;;;;;;;;;;;;5151912;27;19938;-44
2023/10/15 11:15:36;;;;;;;;;;;;;;;;;;5152237;27;19923;-42
2023/10/15 11:18:04;;;;;;;;;;;;;;;;;;5152006;27;19990;-42
2023/10/15 11:20:33;;;;;;;;;;;;;;;;;;5152280;27;20355;-43
2023/10/15 11:23:01;;;;;;;;;;;;;;;;;;5151398;27;19974;-44
2023/10/15 11:25:26;;;;;;;;;;;;;;;;;;5151990;27;19934;-42
2023/10/15 11:27:52;;;;;;;;;;;;;;;;;;5151610;27;20026;-42
2023/10/15 11:30:18;;;;;;;;;;;;;;;;;;5152190;27;19923;-41
2023/10/15 11:32:44;;;;;;;;;;;;;;;;;;5152217;27;20321;-42
2023/10/15 11:35:09;;;;;;;;;;;;;;;;;;5152002;27;20002;-42
2023/10/15 11:37:35;;;;;;;;;;;;;;;;;;5152022;27;20021;-43
2023/10/15 11:40:00;;;;;;;;;;;;;;;;;;5151882;27;19971;-41
2023/10/15 11:42:26;;;;;;;;;;;;;;;;;;5152022;27;20045;-43
2023/10/15 11:44:55;;;;;;;;;;;;;;;;;;5154200;27;20330;-42
2023/10/15 11:47:24;;;;;;;;;;;;;;;;;;5155524;27;19930;-42
2023/10/15 11:49:50;;;;;;;;;;;;;;;;;;5155125;27;20324;-43
2023/10/15 11:52:18;;;;;;;;;;;;;;;;;;5159618;27;19927;-45
2023/10/15 11:54:48;;;;;;;;;;;;;;;;;;5176235;27;19981;-41
2023/10/15 11:57:16;;;;;;;;;;;;;;;;;;5176476;27;19930;-41
2023/10/15 11:59:45;;;;;;;;;;;;;;;;;;5137792;27;20484;-41
2023/10/15 12:02:11;;;;;;;;;;;;;;;;;;5134580;28;20270;-43
2023/10/15 12:04:36;;;;;;;;;;;;;;;;;;5134133;28;19927;-42
2023/10/15 12:07:03;;;;;;;;;;;;;;;;;;5134598;28;19927;-43
2023/10/15 12:09:31;;;;;;;;;;;;;;;;;;5134212;27;19961;-43
2023/10/15 12:11:57;;;;;;;;;;;;;;;;;;5139491;27;19966;-42
2023/10/15 12:14:22;;;;;;;;;;;;;;;;;;5154512;27;19927;-41
2023/10/15 12:16:48;;;;;;;;;;;;;;;;;;5154877;27;19970;-47
2023/10/15 12:19:13;;;;;;;;;;;;;;;;;;5139969;27;19924;-45
2023/10/15 12:21:39;;;;;;;;;;;;;;;;;;5134338;28;20402;-45
2023/10/15 12:24:04;;;;;;;;;;;;;;;;;;5145795;27;20363;-41
2023/10/15 12:26:30;;;;;;;;;;;;;;;;;;5154534;27;19995;-42
2023/10/15 12:28:55;;;;;;;;;;;;;;;;;;5154696;27;19934;-42
2023/10/15 12:31:21;;;;;;;;;;;;;;;;;;5154692;27;19974;-44
2023/10/15 12:33:46;;;;;;;;;;;;;;;;;;5154739;27;20375;-43
2023/10/15 12:36:12;;;;;;;;;;;;;;;;;;5154993;27;20090;-42
2023/10/15 12:38:39;;;;;;;;;;;;;;;;;;5154329;27;20447;-42
2023/10/15 12:41:04;;;;;;;;;;;;;;;;;;5154771;27;20417;-43
2023/10/15 12:43:31;;;;;;;;;;;;;;;;;;5154718;27;20375;-41
2023/10/15 12:45:56;;;;;;;;;;;;;;;;;;5154231;27;19931;-41
2023/10/15 12:48:22;;;;;;;;;;;;;;;;;;5154533;27;20010;-42
2023/10/15 12:50:47;;;;;;;;;;;;;;;;;;5154551;27;19930;-41
2023/10/15 12:53:13;;;;;;;;;;;;;;;;;;5171665;27;19923;-41
2023/10/15 12:55:39;;;;;;;;;;;;;;;;;;5175796;27;20364;-43
2023/10/15 12:58:04;;;;;;;;;;;;;;;;;;5165625;27;20334;-43
2023/10/15 13:00:32;;;;;;;;;;;;;;;;;;5134190;28;19928;-45
2023/10/15 13:02:58;;;;;;;;;;;;;;;;;;5133974;28;19923;-42
2023/10/15 13:05:23;;;;;;;;;;;;;;;;;;5133721;28;19969;-45
2023/10/15 13:07:49;;;;;;;;;;;;;;;;;;5133308;27;19931;-44
2023/10/15 13:10:14;;;;;;;;;;;;;;;;;;5133678;28;19928;-42
2023/10/15 13:12:40;;;;;;;;;;;;;;;;;;5133511;28;20361;-42
2023/10/15 13:15:07;;;;;;;;;;;;;;;;;;5150117;27;20022;-44
2023/10/15 13:17:33;;;;;;;;;;;;;;;;;;5153905;27;19930;-42
2023/10/15 13:19:59;;;;;;;;;;;;;;;;;;5154006;27;20033;-43
2023/10/15 13:22:25;;;;;;;;;;;;;;;;;;5154016;27;19927;-43
2023/10/15 13:24:51;;;;;;;;;;;;;;;;;;5153308;27;19927;-42
2023/10/15 13:27:16;;;;;;;;;;;;;;;;;;5153400;27;19934;-43
2023/10/15 13:29:42;;;;;;;;;;;;;;;;;;5153615;27;19923;-45
2023/10/15 13:32:08;;;;;;;;;;;;;;;;;;5153482;27;19976;-42
2023/10/15 13:34:33;;;;;;;;;;;;;;;;;;5153942;27;19960;-41
2023/10/15 13:36:59;;;;;;;;;;;;;;;;;;5153859;27;19923;-42
2023/10/15 13:39:28;;;;;;;;;;;;;;;;;;5153405;27;19930;-42
2023/10/15 13:41:54;;;;;;;;;;;;;;;;;;5153551;27;19923;-43
2023/10/15 13:44:19;;;;;;;;;;;;;;;;;;5152659;27;20335;-43
2023/10/15 13:46:46;;;;;;;;;;;;;;;;;;5153523;27;20005;-45
2023/10/15 13:49:12;;;;;;;;;;;;;;;;;;5153362;27;20017;-44
2023/10/15 13:51:39;;;;;;;;;;;;;;;;;;5152628;27;19965;-42
2023/10/15 13:54:04;;;;;;;;;;;;;;;;;;5174063;27;19946;-44
2023/10/15 13:56:29;;;;;;;;;;;;;;;;;;5174315;27;20034;-41
2023/10/15 13:58:55;;;;;;;;;;;;;;;;;;5149652;27;19978;-41
2023/10/15 14:01:20;;;;;;;;;;;;;;;;;;5132631;28;19927;-41
2023/10/15 14:03:46;;;;;;;;;;;;;;;;;;5132529;28;20109;-45
2023/10/15 14:06:12;;;;;;;;;;;;;;;;;;5131522;27;20076;-41
2023/10/15 14:08:38;;;;;;;;;;;;;;;;;;5131555;27;19999;-41
2023/10/15 14:11:03;;;;;;;;;;;;;;;;;;5132348;28;19971;-43
2023/10/15 14:13:29;;;;;;;;;;;;;;;;;;5131794;28;19923;-45
2023/10/15 14:16:01;;;;;;;;;;;;;;;;;;5140249;27;20022;-43
2023/10/15 14:18:28;;;;;;;;;;;;;;;;;;5152630;27;19927;-41
2023/10/15 14:20:53;;;;;;;;;;;;;;;;;;5153196;27;20368;-43
2023/10/15 14:23:20;;;;;;;;;;;;;;;;;;5152340;27;20054;-42
2023/10/15 14:25:47;;;;;;;;;;;;;;;;;;5152543;27;19931;-42
2023/10/15 14:28:12;;;;;;;;;;;;;;;;;;5147635;27;19976;-42
2023/10/15 14:30:38;;;;;;;;;;;;;;;;;;5152429;27;20009;-43
2023/10/15 14:33:03;;;;;;;;;;;;;;;;;;5152737;27;20013;-44
2023/10/15 14:35:29;;;;;;;;;;;;;;;;;;5152734;27;20014;-43
2023/10/15 14:37:54;;;;;;;;;;;;;;;;;;5152638;27;20299;-44
2023/10/15 14:40:21;;;;;;;;;;;;;;;;;;5152866;27;19923;-42
2023/10/15 14:42:46;;;;;;;;;;;;;;;;;;5152530;27;19930;-41
2023/10/15 14:45:12;;;;;;;;;;;;;;;;;;5152383;27;19971;-44
2023/10/15 14:47:38;;;;;;;;;;;;;;;;;;5152809;27;19923;-41
2023/10/15 14:50:04;;;;;;;;;;;;;;;;;;5152727;27;20018;-43
2023/10/15 14:52:30;;;;;;;;;;;;;;;;;;5152229;27;19923;-43
2023/10/15 14:54:55;;;;;;;;;;;;;;;;;;5152965;27;20410;-44
2023/10/15 14:57:20;;;;;;;;;;;;;;;;;;5152576;27;20341;-43
2023/10/15 14:59:46;;;;;;;;;;;;;;;;;;5152183;27;19966;-46
2023/10/15 15:02:14;;;;;;;;;;;;;;;;;;5152753;27;19946;-45
2023/10/15 15:04:39;;;;;;;;;;;;;;;;;;5152493;27;19991;-43
2023/10/15 15:07:05;;;;;;;;;;;;;;;;;;5152636;27;20382;-44
2023/10/15 15:09:30;;;;;;;;;;;;;;;;;;5151688;27;19966;-42
2023/10/15 15:11:56;;;;;;;;;;;;;;;;;;5152782;27;20022;-41
2023/10/15 15:14:21;;;;;;;;;;;;;;;;;;5151688;27;19931;-41
2023/10/15 15:16:48;;;;;;;;;;;;;;;;;;5152253;27;20509;-43
2023/10/15 15:19:14;;;;;;;;;;;;;;;;;;5150677;27;20310;-43
2023/10/15 15:21:39;;;;;;;;;;;;;;;;;;5152613;27;20423;-42
2023/10/15 15:24:05;;;;;;;;;;;;;;;;;;5152504;27;20282;-41
2023/10/15 15:26:30;;;;;;;;;;;;;;;;;;5152581;27;20001;-41
2023/10/15 15:28:56;;;;;;;;;;;;;;;;;;5151998;27;19931;-44
2023/10/15 15:31:21;;;;;;;;;;;;;;;;;;5151810;27;20533;-45
2023/10/15 15:33:47;;;;;;;;;;;;;;;;;;5151750;27;20051;-44
2023/10/15 15:36:12;;;;;;;;;;;;;;;;;;5152444;27;20008;-42
2023/10/15 15:38:38;;;;;;;;;;;;;;;;;;5152157;27;19927;-42
2023/10/15 15:41:04;;;;;;;;;;;;;;;;;;5152807;27;19998;-46
2023/10/15 15:43:29;;;;;;;;;;;;;;;;;;5151848;27;19927;-41
2023/10/15 15:45:55;;;;;;;;;;;;;;;;;;5151712;27;19927;-41
2023/10/15 15:48:20;;;;;;;;;;;;;;;;;;5150699;27;20100;-41
2023/10/15 15:50:47;;;;;;;;;;;;;;;;;;5171199;27;19927;-46
2023/10/15 15:53:12;;;;;;;;;;;;;;;;;;5173000;27;19965;-41
2023/10/15 15:55:40;;;;;;;;;;;;;;;;;;5173056;27;19973;-45
2023/10/15 15:58:06;;;;;;;;;;;;;;;;;;5162140;27;20325;-43
2023/10/15 16:00:33;;;;;;;;;;;;;;;;;;5131671;28;19924;-41
2023/10/15 16:02:59;;;;;;;;;;;;;;;;;;5130607;28;19923;-44
2023/10/15 16:05:24;;;;;;;;;;;;;;;;;;5129990;28;19972;-44
2023/10/15 16:07:50;;;;;;;;;;;;;;;;;;5130455;27;19935;-44
2023/10/15 16:10:15;;;;;;;;;;;;;;;;;;5130458;28;20275;-43
2023/10/15 16:12:41;;;;;;;;;;;;;;;;;;5130158;28;19923;-42
2023/10/15 16:15:06;;;;;;;;;;;;;;;;;;5130085;28;20034;-42
2023/10/15 16:17:31;;;;;;;;;;;;;;;;;;5130152;27;19927;-41
2023/10/15 16:19:57;;;;;;;;;;;;;;;;;;5142850;27;19958;-41
2023/10/15 16:22:24;;;;;;;;;;;;;;;;;;5151055;27;20112;-42
2023/10/15 16:24:49;;;;;;;;;;;;;;;;;;5150745;27;19974;-44
2023/10/15 16:27:25;;;;;;;;;;;;;;;;;;5151482;27;19923;-45
2023/10/15 16:29:51;;;;;;;;;;;;;;;;;;5133184;27;20014;-42
2023/10/15 16:32:16;;;;;;;;;;;;;;;;;;5154248;27;20390;-43
2023/10/15 16:34:42;;;;;;;;;;;;;;;;;;5154668;27;20021;-42
2023/10/15 16:37:07;;;;;;;;;;;;;;;;;;5154651;27;20018;-42
2023/10/15 16:39:33;;;;;;;;;;;;;;;;;;5136771;27;20419;-41
2023/10/15 16:41:59;;;;;;;;;;;;;;;;;;5134208;28;20338;-42
2023/10/15 16:44:25;;;;;;;;;;;;;;;;;;5133218;28;19973;-44